sensor_id;sensor_type;location;lat;lon;timestamp;temperature;humidity
2565;DHT22;1292;48.020;7.822;2022-07-24T05:46:05;20.60;99.90
2565;DHT22;1292;48.020;7.822;2022-07-24T05:48:32;20.70;99.90
2565;DHT22;1292;48.020;7.822;2022-07-24T05:50:59;20.80;99.90
2565;DHT22;1292;48.020;7.822;2022-07-24T05:53:26;20.90;99.90
2565;DHT22;1292;48.020;7.822;2022-07-24T05:55:52;21.00;99.90
2565;DHT22;1292;48.020;7.822;2022-07-24T05:58:19;21.10;99.90
2565;DHT22;1292;48.020;7.822;2022-07-24T06:00:46;21.20;99.90
2565;DHT22;1292;48.020;7.822;2022-07-24T06:03:14;21.40;99.90
2565;DHT22;1292;48.020;7.822;2022-07-24T06:05:41;21.50;99.90
2565;DHT22;1292;48.020;7.822;2022-07-24T06:08:08;21.50;99.90
2565;DHT22;1292;48.020;7.822;2022-07-24T06:10:35;21.60;99.90
2565;DHT22;1292;48.020;7.822;2022-07-24T06:13:02;21.70;99.90
2565;DHT22;1292;48.020;7.822;2022-07-24T06:15:28;21.90;99.90
2565;DHT22;1292;48.020;7.822;2022-07-24T06:17:55;22.00;99.90
2565;DHT22;1292;48.020;7.822;2022-07-24T06:20:23;22.10;99.90
2565;DHT22;1292;48.020;7.822;2022-07-24T06:22:51;22.20;99.90
2565;DHT22;1292;48.020;7.822;2022-07-24T06:25:18;22.20;99.90
2565;DHT22;1292;48.020;7.822;2022-07-24T06:27:46;22.40;99.90
2565;DHT22;1292;48.020;7.822;2022-07-24T06:30:13;22.40;99.90
2565;DHT22;1292;48.020;7.822;2022-07-24T06:32:40;22.60;99.90
2565;DHT22;1292;48.020;7.822;2022-07-24T06:35:07;22.70;99.90
2565;DHT22;1292;48.020;7.822;2022-07-24T06:37:35;22.80;99.90
2565;DHT22;1292;48.020;7.822;2022-07-24T06:40:03;22.80;99.90
2565;DHT22;1292;48.020;7.822;2022-07-24T06:42:30;22.90;99.90
2565;DHT22;1292;48.020;7.822;2022-07-24T06:44:57;23.00;99.90
2565;DHT22;1292;48.020;7.822;2022-07-24T06:47:24;23.10;99.90
2565;DHT22;1292;48.020;7.822;2022-07-24T06:49:51;23.20;99.90
2565;DHT22;1292;48.020;7.822;2022-07-24T06:52:18;23.30;99.90
2565;DHT22;1292;48.020;7.822;2022-07-24T06:54:46;23.30;99.90
2565;DHT22;1292;48.020;7.822;2022-07-24T06:57:13;23.30;99.90
2565;DHT22;1292;48.020;7.822;2022-07-24T06:59:40;23.40;99.90
2565;DHT22;1292;48.020;7.822;2022-07-24T07:02:07;23.40;99.90
2565;DHT22;1292;48.020;7.822;2022-07-24T07:04:34;23.50;99.90
2565;DHT22;1292;48.020;7.822;2022-07-24T07:07:01;23.50;99.90
2565;DHT22;1292;48.020;7.822;2022-07-24T07:09:28;23.60;99.90
2565;DHT22;1292;48.020;7.822;2022-07-24T07:11:56;23.70;99.90
2565;DHT22;1292;48.020;7.822;2022-07-24T07:14:23;23.80;99.90
2565;DHT22;1292;48.020;7.822;2022-07-24T07:16:50;23.80;99.90
2565;DHT22;1292;48.020;7.822;2022-07-24T07:19:17;23.90;99.90
2565;DHT22;1292;48.020;7.822;2022-07-24T07:21:43;24.00;99.90
2565;DHT22;1292;48.020;7.822;2022-07-24T07:24:10;24.10;99.90
2565;DHT22;1292;48.020;7.822;2022-07-24T07:26:37;24.10;99.90
2565;DHT22;1292;48.020;7.822;2022-07-24T07:29:05;24.20;99.90
2565;DHT22;1292;48.020;7.822;2022-07-24T07:31:32;24.20;99.90
2565;DHT22;1292;48.020;7.822;2022-07-24T07:34:00;24.30;99.90
2565;DHT22;1292;48.020;7.822;2022-07-24T07:36:27;24.30;99.90
2565;DHT22;1292;48.020;7.822;2022-07-24T07:38:54;24.30;99.90
2565;DHT22;1292;48.020;7.822;2022-07-24T07:41:23;24.40;99.90
2565;DHT22;1292;48.020;7.822;2022-07-24T07:43:49;24.40;99.90
2565;DHT22;1292;48.020;7.822;2022-07-24T07:46:18;24.40;99.90
2565;DHT22;1292;48.020;7.822;2022-07-24T07:48:45;24.40;99.90
2565;DHT22;1292;48.020;7.822;2022-07-24T07:51:12;24.60;99.90
2565;DHT22;1292;48.020;7.822;2022-07-24T07:53:39;24.70;99.90
2565;DHT22;1292;48.020;7.822;2022-07-24T07:56:07;24.80;99.90
2565;DHT22;1292;48.020;7.822;2022-07-24T07:58:34;24.70;99.90
2565;DHT22;1292;48.020;7.822;2022-07-24T08:01:01;24.80;99.90
2565;DHT22;1292;48.020;7.822;2022-07-24T08:03:29;24.90;99.90
2565;DHT22;1292;48.020;7.822;2022-07-24T08:05:56;25.00;99.90
2565;DHT22;1292;48.020;7.822;2022-07-24T08:08:23;25.00;99.90
2565;DHT22;1292;48.020;7.822;2022-07-24T08:10:50;25.10;99.90
2565;DHT22;1292;48.020;7.822;2022-07-24T08:13:17;25.30;99.90
2565;DHT22;1292;48.020;7.822;2022-07-24T08:15:45;25.30;99.90
2565;DHT22;1292;48.020;7.822;2022-07-24T08:18:12;25.30;99.90
2565;DHT22;1292;48.020;7.822;2022-07-24T08:20:40;25.40;99.90
2565;DHT22;1292;48.020;7.822;2022-07-24T08:23:08;25.50;99.90
2565;DHT22;1292;48.020;7.822;2022-07-24T08:25:35;25.60;99.90
2565;DHT22;1292;48.020;7.822;2022-07-24T08:28:02;25.70;99.90
2565;DHT22;1292;48.020;7.822;2022-07-24T08:30:29;25.70;99.90
2565;DHT22;1292;48.020;7.822;2022-07-24T08:32:56;25.80;99.90
2565;DHT22;1292;48.020;7.822;2022-07-24T08:35:23;25.80;99.90
2565;DHT22;1292;48.020;7.822;2022-07-24T08:37:51;25.90;99.90
2565;DHT22;1292;48.020;7.822;2022-07-24T08:40:18;26.00;99.90
2565;DHT22;1292;48.020;7.822;2022-07-24T08:42:45;26.00;99.90
2565;DHT22;1292;48.020;7.822;2022-07-24T08:45:12;26.10;99.90
2565;DHT22;1292;48.020;7.822;2022-07-24T08:47:39;26.20;99.90
2565;DHT22;1292;48.020;7.822;2022-07-24T08:50:07;26.20;99.90
2565;DHT22;1292;48.020;7.822;2022-07-24T08:52:35;26.20;99.90
2565;DHT22;1292;48.020;7.822;2022-07-24T08:55:05;26.30;99.90
2565;DHT22;1292;48.020;7.822;2022-07-24T08:57:32;26.40;99.90
2565;DHT22;1292;48.020;7.822;2022-07-24T08:59:58;26.50;99.90
2565;DHT22;1292;48.020;7.822;2022-07-24T09:02:26;26.70;99.90
2565;DHT22;1292;48.020;7.822;2022-07-24T09:04:58;27.00;99.90
2565;DHT22;1292;48.020;7.822;2022-07-24T09:07:27;27.40;99.90
2565;DHT22;1292;48.020;7.822;2022-07-24T09:09:59;27.70;99.90
2565;DHT22;1292;48.020;7.822;2022-07-24T09:12:30;27.80;99.90
2565;DHT22;1292;48.020;7.822;2022-07-24T09:14:58;28.00;99.90
2565;DHT22;1292;48.020;7.822;2022-07-24T09:17:26;28.00;99.90
2565;DHT22;1292;48.020;7.822;2022-07-24T09:19:54;28.00;99.90
2565;DHT22;1292;48.020;7.822;2022-07-24T09:22:32;28.10;99.90
2565;DHT22;1292;48.020;7.822;2022-07-24T09:25:11;28.30;99.90
2565;DHT22;1292;48.020;7.822;2022-07-24T09:27:41;28.30;99.90
2565;DHT22;1292;48.020;7.822;2022-07-24T09:30:22;28.30;99.90
2565;DHT22;1292;48.020;7.822;2022-07-24T09:32:52;28.30;99.90
2565;DHT22;1292;48.020;7.822;2022-07-24T09:35:22;28.50;99.90
2565;DHT22;1292;48.020;7.822;2022-07-24T09:37:53;28.60;99.90
2565;DHT22;1292;48.020;7.822;2022-07-24T09:40:21;28.80;99.90
2565;DHT22;1292;48.020;7.822;2022-07-24T09:42:49;28.70;99.90
2565;DHT22;1292;48.020;7.822;2022-07-24T09:45:17;28.60;99.90
2565;DHT22;1292;48.020;7.822;2022-07-24T09:47:44;28.50;99.90
2565;DHT22;1292;48.020;7.822;2022-07-24T09:50:15;28.60;99.90
2565;DHT22;1292;48.020;7.822;2022-07-24T09:52:43;28.80;99.90
2565;DHT22;1292;48.020;7.822;2022-07-24T09:55:21;28.90;99.90
2565;DHT22;1292;48.020;7.822;2022-07-24T09:57:50;29.00;99.90
2565;DHT22;1292;48.020;7.822;2022-07-24T10:00:18;28.90;99.90
2565;DHT22;1292;48.020;7.822;2022-07-24T10:02:45;29.10;99.90
2565;DHT22;1292;48.020;7.822;2022-07-24T10:05:13;29.00;99.90
2565;DHT22;1292;48.020;7.822;2022-07-24T10:07:42;29.10;99.90
2565;DHT22;1292;48.020;7.822;2022-07-24T10:10:12;29.00;99.90
2565;DHT22;1292;48.020;7.822;2022-07-24T10:12:39;29.10;99.90
2565;DHT22;1292;48.020;7.822;2022-07-24T10:15:08;29.30;99.90
2565;DHT22;1292;48.020;7.822;2022-07-24T10:20:38;29.40;99.90
2565;DHT22;1292;48.020;7.822;2022-07-24T10:23:06;29.20;99.90
2565;DHT22;1292;48.020;7.822;2022-07-24T10:25:44;29.30;99.90
2565;DHT22;1292;48.020;7.822;2022-07-24T10:28:25;29.30;99.90
2565;DHT22;1292;48.020;7.822;2022-07-24T10:31:00;29.40;99.90
2565;DHT22;1292;48.020;7.822;2022-07-24T10:33:28;29.40;99.90
2565;DHT22;1292;48.020;7.822;2022-07-24T10:35:58;29.40;99.90
2565;DHT22;1292;48.020;7.822;2022-07-24T10:38:32;29.30;99.90
2565;DHT22;1292;48.020;7.822;2022-07-24T10:41:05;29.40;99.90
2565;DHT22;1292;48.020;7.822;2022-07-24T10:43:34;29.60;99.90
2565;DHT22;1292;48.020;7.822;2022-07-24T10:46:11;29.60;99.90
2565;DHT22;1292;48.020;7.822;2022-07-24T10:48:41;29.50;99.90
2565;DHT22;1292;48.020;7.822;2022-07-24T10:51:11;29.50;99.90
2565;DHT22;1292;48.020;7.822;2022-07-24T10:53:53;29.70;99.90
2565;DHT22;1292;48.020;7.822;2022-07-24T10:56:27;30.00;99.90
2565;DHT22;1292;48.020;7.822;2022-07-24T10:58:59;30.10;99.90
2565;DHT22;1292;48.020;7.822;2022-07-24T11:01:31;30.10;99.90
2565;DHT22;1292;48.020;7.822;2022-07-24T11:03:58;30.00;99.90
2565;DHT22;1292;48.020;7.822;2022-07-24T11:06:43;30.20;99.90
2565;DHT22;1292;48.020;7.822;2022-07-24T11:09:10;30.30;99.90
2565;DHT22;1292;48.020;7.822;2022-07-24T11:11:41;30.40;99.90
2565;DHT22;1292;48.020;7.822;2022-07-24T11:14:10;30.50;99.90
2565;DHT22;1292;48.020;7.822;2022-07-24T11:16:38;30.50;99.90
2565;DHT22;1292;48.020;7.822;2022-07-24T11:19:29;30.70;99.90
2565;DHT22;1292;48.020;7.822;2022-07-24T11:22:10;31.00;99.90
2565;DHT22;1292;48.020;7.822;2022-07-24T11:25:05;30.80;99.90
2565;DHT22;1292;48.020;7.822;2022-07-24T11:27:51;30.80;99.90
2565;DHT22;1292;48.020;7.822;2022-07-24T11:30:22;30.80;99.90
2565;DHT22;1292;48.020;7.822;2022-07-24T11:32:51;31.00;99.90
2565;DHT22;1292;48.020;7.822;2022-07-24T11:35:29;31.10;99.90
2565;DHT22;1292;48.020;7.822;2022-07-24T11:37:59;31.20;99.90
2565;DHT22;1292;48.020;7.822;2022-07-24T11:40:26;31.30;99.90
2565;DHT22;1292;48.020;7.822;2022-07-24T11:42:56;31.30;99.90
2565;DHT22;1292;48.020;7.822;2022-07-24T11:45:23;31.40;99.80
2565;DHT22;1292;48.020;7.822;2022-07-24T11:47:52;31.20;99.40
2565;DHT22;1292;48.020;7.822;2022-07-24T11:50:21;31.20;99.90
2565;DHT22;1292;48.020;7.822;2022-07-24T11:52:48;31.40;99.90
2565;DHT22;1292;48.020;7.822;2022-07-24T11:55:17;31.50;99.90
2565;DHT22;1292;48.020;7.822;2022-07-24T11:57:46;31.40;99.90
2565;DHT22;1292;48.020;7.822;2022-07-24T12:00:15;31.50;99.90
2565;DHT22;1292;48.020;7.822;2022-07-24T12:02:43;31.60;99.20
2565;DHT22;1292;48.020;7.822;2022-07-24T12:05:12;31.50;98.90
2565;DHT22;1292;48.020;7.822;2022-07-24T12:07:39;31.30;99.50
2565;DHT22;1292;48.020;7.822;2022-07-24T12:10:07;31.30;99.50
2565;DHT22;1292;48.020;7.822;2022-07-24T12:12:35;31.40;99.90
2565;DHT22;1292;48.020;7.822;2022-07-24T12:15:05;31.30;99.50
2565;DHT22;1292;48.020;7.822;2022-07-24T12:17:35;31.40;99.90
2565;DHT22;1292;48.020;7.822;2022-07-24T12:20:03;31.50;98.90
2565;DHT22;1292;48.020;7.822;2022-07-24T12:22:35;31.40;98.70
2565;DHT22;1292;48.020;7.822;2022-07-24T12:25:02;31.50;99.00
2565;DHT22;1292;48.020;7.822;2022-07-24T12:27:38;31.70;99.60
2565;DHT22;1292;48.020;7.822;2022-07-24T12:30:22;31.70;98.80
2565;DHT22;1292;48.020;7.822;2022-07-24T12:32:57;31.60;98.00
2565;DHT22;1292;48.020;7.822;2022-07-24T12:35:26;31.50;98.70
2565;DHT22;1292;48.020;7.822;2022-07-24T12:37:55;31.70;99.40
2565;DHT22;1292;48.020;7.822;2022-07-24T12:40:31;31.90;98.70
2565;DHT22;1292;48.020;7.822;2022-07-24T12:43:06;31.90;99.20
2565;DHT22;1292;48.020;7.822;2022-07-24T12:45:33;32.10;98.20
2565;DHT22;1292;48.020;7.822;2022-07-24T12:48:21;32.00;98.20
2565;DHT22;1292;48.020;7.822;2022-07-24T12:51:15;31.90;98.30
2565;DHT22;1292;48.020;7.822;2022-07-24T12:53:43;31.90;98.50
2565;DHT22;1292;48.020;7.822;2022-07-24T12:56:12;32.00;98.00
2565;DHT22;1292;48.020;7.822;2022-07-24T12:58:54;31.90;97.60
2565;DHT22;1292;48.020;7.822;2022-07-24T13:01:22;31.70;97.80
2565;DHT22;1292;48.020;7.822;2022-07-24T13:03:53;31.70;98.60
2565;DHT22;1292;48.020;7.822;2022-07-24T13:06:31;31.90;97.90
2565;DHT22;1292;48.020;7.822;2022-07-24T13:09:00;31.90;97.40
2565;DHT22;1292;48.020;7.822;2022-07-24T13:11:27;31.90;97.70
2565;DHT22;1292;48.020;7.822;2022-07-24T13:13:54;31.90;97.60
2565;DHT22;1292;48.020;7.822;2022-07-24T13:16:20;31.90;97.50
2565;DHT22;1292;48.020;7.822;2022-07-24T13:18:49;32.00;97.40
2565;DHT22;1292;48.020;7.822;2022-07-24T13:21:16;31.80;97.30
2565;DHT22;1292;48.020;7.822;2022-07-24T13:23:44;31.80;97.60
2565;DHT22;1292;48.020;7.822;2022-07-24T13:26:12;31.90;97.70
2565;DHT22;1292;48.020;7.822;2022-07-24T13:28:39;32.10;97.30
2565;DHT22;1292;48.020;7.822;2022-07-24T13:31:07;32.20;97.50
2565;DHT22;1292;48.020;7.822;2022-07-24T13:33:33;32.30;97.40
2565;DHT22;1292;48.020;7.822;2022-07-24T13:36:00;32.30;96.50
2565;DHT22;1292;48.020;7.822;2022-07-24T13:38:27;32.30;96.80
2565;DHT22;1292;48.020;7.822;2022-07-24T13:40:54;32.40;97.20
2565;DHT22;1292;48.020;7.822;2022-07-24T13:43:22;32.10;96.70
2565;DHT22;1292;48.020;7.822;2022-07-24T13:45:51;32.20;97.00
2565;DHT22;1292;48.020;7.822;2022-07-24T13:48:18;32.40;97.20
2565;DHT22;1292;48.020;7.822;2022-07-24T13:50:45;32.50;96.70
2565;DHT22;1292;48.020;7.822;2022-07-24T13:53:11;32.60;96.20
2565;DHT22;1292;48.020;7.822;2022-07-24T13:55:38;32.60;96.50
2565;DHT22;1292;48.020;7.822;2022-07-24T13:58:05;32.80;97.20
2565;DHT22;1292;48.020;7.822;2022-07-24T14:00:34;33.10;96.30
2565;DHT22;1292;48.020;7.822;2022-07-24T14:03:01;33.20;95.70
2565;DHT22;1292;48.020;7.822;2022-07-24T14:05:27;33.20;95.40
2565;DHT22;1292;48.020;7.822;2022-07-24T14:07:54;33.20;94.90
2565;DHT22;1292;48.020;7.822;2022-07-24T14:10:22;32.90;94.90
2565;DHT22;1292;48.020;7.822;2022-07-24T14:12:49;32.80;95.80
2565;DHT22;1292;48.020;7.822;2022-07-24T14:15:16;32.90;95.70
2565;DHT22;1292;48.020;7.822;2022-07-24T14:17:45;32.80;95.30
2565;DHT22;1292;48.020;7.822;2022-07-24T14:20:13;32.90;95.40
2565;DHT22;1292;48.020;7.822;2022-07-24T14:22:41;33.00;95.30
2565;DHT22;1292;48.020;7.822;2022-07-24T14:25:09;32.90;94.50
2565;DHT22;1292;48.020;7.822;2022-07-24T14:27:36;32.90;95.20
2565;DHT22;1292;48.020;7.822;2022-07-24T14:30:05;32.80;94.40
2565;DHT22;1292;48.020;7.822;2022-07-24T14:32:32;32.80;94.60
2565;DHT22;1292;48.020;7.822;2022-07-24T14:35:01;32.90;94.90
2565;DHT22;1292;48.020;7.822;2022-07-24T14:37:32;32.80;94.40
2565;DHT22;1292;48.020;7.822;2022-07-24T14:39:59;32.70;94.60
2565;DHT22;1292;48.020;7.822;2022-07-24T14:42:26;32.60;94.70
2565;DHT22;1292;48.020;7.822;2022-07-24T14:44:53;32.80;94.90
2565;DHT22;1292;48.020;7.822;2022-07-24T14:47:20;32.80;94.40
2565;DHT22;1292;48.020;7.822;2022-07-24T14:49:47;32.80;94.10
2565;DHT22;1292;48.020;7.822;2022-07-24T14:52:15;32.60;94.50
2565;DHT22;1292;48.020;7.822;2022-07-24T14:54:44;32.70;94.20
2565;DHT22;1292;48.020;7.822;2022-07-24T14:57:11;32.70;95.10
2565;DHT22;1292;48.020;7.822;2022-07-24T14:59:38;32.60;94.40
2565;DHT22;1292;48.020;7.822;2022-07-24T15:02:05;32.80;94.80
2565;DHT22;1292;48.020;7.822;2022-07-24T15:04:31;33.00;95.20
2565;DHT22;1292;48.020;7.822;2022-07-24T15:06:58;33.20;94.80
2565;DHT22;1292;48.020;7.822;2022-07-24T15:09:26;33.20;94.10
2565;DHT22;1292;48.020;7.822;2022-07-24T15:11:53;33.20;94.10
2565;DHT22;1292;48.020;7.822;2022-07-24T15:14:20;33.00;94.00
2565;DHT22;1292;48.020;7.822;2022-07-24T15:16:47;33.10;94.10
2565;DHT22;1292;48.020;7.822;2022-07-24T15:19:14;33.00;93.60
2565;DHT22;1292;48.020;7.822;2022-07-24T15:21:41;33.10;95.10
2565;DHT22;1292;48.020;7.822;2022-07-24T15:24:08;33.10;93.40
2565;DHT22;1292;48.020;7.822;2022-07-24T15:26:37;33.00;93.40
2565;DHT22;1292;48.020;7.822;2022-07-24T15:29:04;32.90;93.60
2565;DHT22;1292;48.020;7.822;2022-07-24T15:31:31;32.90;94.10
2565;DHT22;1292;48.020;7.822;2022-07-24T15:33:58;32.90;94.10
2565;DHT22;1292;48.020;7.822;2022-07-24T15:36:25;33.00;93.70
2565;DHT22;1292;48.020;7.822;2022-07-24T15:38:52;33.00;93.40
2565;DHT22;1292;48.020;7.822;2022-07-24T15:41:18;33.00;94.00
2565;DHT22;1292;48.020;7.822;2022-07-24T15:43:47;33.00;93.20
2565;DHT22;1292;48.020;7.822;2022-07-24T15:46:13;32.90;93.40
2565;DHT22;1292;48.020;7.822;2022-07-24T15:48:40;32.90;93.20
2565;DHT22;1292;48.020;7.822;2022-07-24T15:51:07;32.70;93.50
2565;DHT22;1292;48.020;7.822;2022-07-24T15:53:34;32.70;93.40
2565;DHT22;1292;48.020;7.822;2022-07-24T15:56:00;32.70;93.50
2565;DHT22;1292;48.020;7.822;2022-07-24T15:58:27;32.80;93.40
2565;DHT22;1292;48.020;7.822;2022-07-24T16:00:55;32.90;93.20
2565;DHT22;1292;48.020;7.822;2022-07-24T16:03:22;32.80;93.20
2565;DHT22;1292;48.020;7.822;2022-07-24T16:05:49;32.90;93.60
2565;DHT22;1292;48.020;7.822;2022-07-24T16:08:16;32.80;93.30
2565;DHT22;1292;48.020;7.822;2022-07-24T16:10:42;32.90;92.90
2565;DHT22;1292;48.020;7.822;2022-07-24T16:13:09;32.80;92.70
2565;DHT22;1292;48.020;7.822;2022-07-24T16:15:36;32.80;93.00
2565;DHT22;1292;48.020;7.822;2022-07-24T16:18:05;32.90;93.20
2565;DHT22;1292;48.020;7.822;2022-07-24T16:20:31;32.90;92.90
2565;DHT22;1292;48.020;7.822;2022-07-24T16:22:58;32.90;92.80
2565;DHT22;1292;48.020;7.822;2022-07-24T16:25:25;32.70;93.00
2565;DHT22;1292;48.020;7.822;2022-07-24T16:27:52;32.60;93.10
2565;DHT22;1292;48.020;7.822;2022-07-24T16:30:19;32.70;93.10
2565;DHT22;1292;48.020;7.822;2022-07-24T16:32:46;32.70;92.70
2565;DHT22;1292;48.020;7.822;2022-07-24T16:35:14;32.70;93.00
2565;DHT22;1292;48.020;7.822;2022-07-24T16:37:41;32.70;93.10
2565;DHT22;1292;48.020;7.822;2022-07-24T16:40:09;32.80;93.20
2565;DHT22;1292;48.020;7.822;2022-07-24T16:42:36;32.70;92.70
2565;DHT22;1292;48.020;7.822;2022-07-24T16:45:03;32.50;92.90
2565;DHT22;1292;48.020;7.822;2022-07-24T16:47:30;32.40;92.70
2565;DHT22;1292;48.020;7.822;2022-07-24T16:49:57;32.40;92.80
2565;DHT22;1292;48.020;7.822;2022-07-24T16:52:25;32.40;93.00
2565;DHT22;1292;48.020;7.822;2022-07-24T16:54:52;32.40;93.10
2565;DHT22;1292;48.020;7.822;2022-07-24T16:57:19;32.40;93.00
2565;DHT22;1292;48.020;7.822;2022-07-24T16:59:45;32.40;93.00
2565;DHT22;1292;48.020;7.822;2022-07-24T17:02:12;32.40;93.00
2565;DHT22;1292;48.020;7.822;2022-07-24T17:04:39;32.40;93.10
2565;DHT22;1292;48.020;7.822;2022-07-24T17:07:06;32.40;92.80
2565;DHT22;1292;48.020;7.822;2022-07-24T17:09:34;32.40;92.90
2565;DHT22;1292;48.020;7.822;2022-07-24T17:12:01;32.40;93.20
2565;DHT22;1292;48.020;7.822;2022-07-24T17:14:27;32.40;93.20
2565;DHT22;1292;48.020;7.822;2022-07-24T17:16:55;32.40;93.50
2565;DHT22;1292;48.020;7.822;2022-07-24T17:19:22;32.30;93.40
2565;DHT22;1292;48.020;7.822;2022-07-24T17:21:58;32.10;93.60
2565;DHT22;1292;48.020;7.822;2022-07-24T17:24:25;32.00;93.80
2565;DHT22;1292;48.020;7.822;2022-07-24T17:26:53;32.00;94.00
2565;DHT22;1292;48.020;7.822;2022-07-24T17:29:20;31.90;93.00
2565;DHT22;1292;48.020;7.822;2022-07-24T17:31:47;31.80;93.70
2565;DHT22;1292;48.020;7.822;2022-07-24T17:34:14;31.90;93.80
2565;DHT22;1292;48.020;7.822;2022-07-24T17:36:41;31.80;93.60
2565;DHT22;1292;48.020;7.822;2022-07-24T17:39:08;31.90;93.60
2565;DHT22;1292;48.020;7.822;2022-07-24T17:41:35;31.80;93.70
2565;DHT22;1292;48.020;7.822;2022-07-24T17:44:04;31.80;93.50
2565;DHT22;1292;48.020;7.822;2022-07-24T17:46:30;31.60;93.40
2565;DHT22;1292;48.020;7.822;2022-07-24T17:48:57;31.70;93.70
2565;DHT22;1292;48.020;7.822;2022-07-24T17:51:24;31.70;93.50
2565;DHT22;1292;48.020;7.822;2022-07-24T17:53:51;31.70;93.70
2565;DHT22;1292;48.020;7.822;2022-07-24T17:56:18;31.70;93.70
2565;DHT22;1292;48.020;7.822;2022-07-24T17:58:45;31.60;94.00
2565;DHT22;1292;48.020;7.822;2022-07-24T18:01:13;31.50;93.60
2565;DHT22;1292;48.020;7.822;2022-07-24T18:03:40;31.40;93.50
2565;DHT22;1292;48.020;7.822;2022-07-24T18:06:07;31.40;94.20
2565;DHT22;1292;48.020;7.822;2022-07-24T18:08:34;31.40;94.10
2565;DHT22;1292;48.020;7.822;2022-07-24T18:11:00;31.40;94.20
2565;DHT22;1292;48.020;7.822;2022-07-24T18:13:27;31.30;94.00
2565;DHT22;1292;48.020;7.822;2022-07-24T18:15:56;31.30;94.20
2565;DHT22;1292;48.020;7.822;2022-07-24T18:18:24;31.20;94.30
2565;DHT22;1292;48.020;7.822;2022-07-24T18:20:51;31.10;94.30
2565;DHT22;1292;48.020;7.822;2022-07-24T18:23:18;31.10;94.70
2565;DHT22;1292;48.020;7.822;2022-07-24T18:25:45;31.10;94.60
2565;DHT22;1292;48.020;7.822;2022-07-24T18:28:15;30.90;94.60
2565;DHT22;1292;48.020;7.822;2022-07-24T18:30:41;30.90;94.80
2565;DHT22;1292;48.020;7.822;2022-07-24T18:33:08;30.90;95.00
2565;DHT22;1292;48.020;7.822;2022-07-24T18:35:39;30.90;95.20
2565;DHT22;1292;48.020;7.822;2022-07-24T18:38:06;30.80;95.30
2565;DHT22;1292;48.020;7.822;2022-07-24T18:40:36;30.80;95.40
2565;DHT22;1292;48.020;7.822;2022-07-24T18:43:04;30.80;95.40
2565;DHT22;1292;48.020;7.822;2022-07-24T18:45:30;30.70;96.30
2565;DHT22;1292;48.020;7.822;2022-07-24T18:47:58;30.60;96.10
2565;DHT22;1292;48.020;7.822;2022-07-24T18:50:27;30.60;96.10
2565;DHT22;1292;48.020;7.822;2022-07-24T18:52:55;30.40;96.00
2565;DHT22;1292;48.020;7.822;2022-07-24T18:55:22;30.40;96.90
2565;DHT22;1292;48.020;7.822;2022-07-24T18:57:49;30.30;97.20
2565;DHT22;1292;48.020;7.822;2022-07-24T19:00:16;30.30;97.60
2565;DHT22;1292;48.020;7.822;2022-07-24T19:02:43;30.10;98.20
2565;DHT22;1292;48.020;7.822;2022-07-24T19:05:10;30.00;98.60
2565;DHT22;1292;48.020;7.822;2022-07-24T19:07:37;29.90;98.70
2565;DHT22;1292;48.020;7.822;2022-07-24T19:10:06;29.80;98.60
2565;DHT22;1292;48.020;7.822;2022-07-24T19:12:34;29.70;99.10
2565;DHT22;1292;48.020;7.822;2022-07-24T19:15:01;29.60;99.00
2565;DHT22;1292;48.020;7.822;2022-07-24T19:17:27;29.50;98.70
2565;DHT22;1292;48.020;7.822;2022-07-24T19:19:54;29.40;99.20
2565;DHT22;1292;48.020;7.822;2022-07-24T19:22:21;29.30;99.60
2565;DHT22;1292;48.020;7.822;2022-07-24T19:24:48;29.20;99.90
2565;DHT22;1292;48.020;7.822;2022-07-24T19:27:16;29.10;99.90
2565;DHT22;1292;48.020;7.822;2022-07-24T19:29:43;29.00;99.90
2565;DHT22;1292;48.020;7.822;2022-07-24T19:32:10;28.90;99.90
2565;DHT22;1292;48.020;7.822;2022-07-24T19:34:37;28.80;99.90
2565;DHT22;1292;48.020;7.822;2022-07-24T19:37:05;28.70;99.90
2565;DHT22;1292;48.020;7.822;2022-07-24T19:39:32;28.60;99.90
2565;DHT22;1292;48.020;7.822;2022-07-24T19:42:00;28.50;99.90
2565;DHT22;1292;48.020;7.822;2022-07-24T19:44:29;28.40;99.90
2565;DHT22;1292;48.020;7.822;2022-07-24T19:46:55;28.30;99.90
2565;DHT22;1292;48.020;7.822;2022-07-24T19:49:22;28.10;99.90
2565;DHT22;1292;48.020;7.822;2022-07-24T19:51:49;27.90;99.90
2565;DHT22;1292;48.020;7.822;2022-07-24T19:54:17;27.70;99.90
2565;DHT22;1292;48.020;7.822;2022-07-24T19:56:46;27.50;99.90
2565;DHT22;1292;48.020;7.822;2022-07-24T19:59:13;27.20;99.90
2565;DHT22;1292;48.020;7.822;2022-07-24T20:01:41;27.10;99.90
2565;DHT22;1292;48.020;7.822;2022-07-24T20:04:08;27.00;99.90
2565;DHT22;1292;48.020;7.822;2022-07-24T20:06:35;26.90;99.90
2565;DHT22;1292;48.020;7.822;2022-07-24T20:09:02;26.70;99.90
2565;DHT22;1292;48.020;7.822;2022-07-24T20:11:29;26.50;99.90
2565;DHT22;1292;48.020;7.822;2022-07-24T20:13:56;26.50;99.90
2565;DHT22;1292;48.020;7.822;2022-07-24T20:16:23;26.60;99.90
2565;DHT22;1292;48.020;7.822;2022-07-24T20:18:51;26.70;99.90
2565;DHT22;1292;48.020;7.822;2022-07-24T20:21:18;26.80;99.90
2565;DHT22;1292;48.020;7.822;2022-07-24T20:23:45;26.80;99.90
2565;DHT22;1292;48.020;7.822;2022-07-24T20:26:12;26.80;99.90
2565;DHT22;1292;48.020;7.822;2022-07-24T20:28:39;26.70;99.90
2565;DHT22;1292;48.020;7.822;2022-07-24T20:31:06;26.70;99.90
2565;DHT22;1292;48.020;7.822;2022-07-24T20:33:33;26.70;99.90
2565;DHT22;1292;48.020;7.822;2022-07-24T20:36:01;26.70;99.90
2565;DHT22;1292;48.020;7.822;2022-07-24T20:38:28;26.70;99.90
